Roslyn, South Dakota
Current Conditions -  °F | °C
As of 5:53 PM on Friday 28 Nov 2014 (Local Time) from KATY Reporting Station
Clear Clear  
Wind Chill:   Ceiling: Unl
Heat Index: 16°   Visibility: 10mi
Dew Point: 13°   Wind: 9mph
Humidity: 88%   Direction: 90°E
Pressure: 29.67"   Gusts: NA
Location:  45.5°N, 97.49°W
Report Text: KATY 282353Z AUTO 09008KT 10SM CLR M09/M11 A2967 RMK AO2 SLP077 T10891106 11056 21089 50001
Loading
Personal Weather Stations






























Interactive Weather Map New forecast layout! Learn more

10-Day Weather Forecast

Advertisements
Track Severe Weather on mobile